Time;durP1;ratioP1;P1;durP2;ratioP2;P2;SDS_P1;SDS_P2;PMS_P1;PMS_P2;Temp;Humidity;BMP_temperature;BMP_pressure;BME280_temperature;BME280_humidity;BME280_pressure;Samples;Min_cycle;Max_cycle;Signal;HPM_P1;HPM_P2
2023/08/30 00:00:55;;;;;;;11.13;7.13;;;;;;;16.99;83.03;99342.50;5010400;28;20560;-45
2023/08/30 00:03:47;;;;;;;12.35;7.47;;;;;;;16.99;83.16;99345.13;5018383;28;20165;-44
2023/08/30 00:06:13;;;;;;;11.63;7.97;;;;;;;16.84;82.76;99321.56;5015754;28;20231;-45
2023/08/30 00:08:39;;;;;;;12.60;7.93;;;;;;;16.94;83.09;99350.69;5019726;28;20463;-43
2023/08/30 00:11:05;;;;;;;12.10;8.27;;;;;;;16.85;82.86;99336.34;5004292;28;20055;-45
2023/08/30 00:13:32;;;;;;;11.30;7.68;;;;;;;16.81;83.06;99324.38;5021724;28;20061;-43
2023/08/30 00:15:58;;;;;;;14.00;7.85;;;;;;;16.80;83.10;99314.00;5026579;28;20041;-44
2023/08/30 00:18:24;;;;;;;10.60;7.75;;;;;;;16.81;83.20;99316.50;5017378;28;20045;-44
2023/08/30 00:20:50;;;;;;;11.80;7.72;;;;;;;16.96;83.25;99345.34;5022091;28;20037;-44
2023/08/30 00:23:16;;;;;;;13.55;7.10;;;;;;;16.93;83.04;99346.38;5023906;28;20045;-42
2023/08/30 00:25:42;;;;;;;14.23;8.23;;;;;;;16.76;83.02;99321.22;5028241;28;20092;-43
2023/08/30 00:28:08;;;;;;;12.10;7.55;;;;;;;16.92;82.71;99349.94;5025098;28;20041;-43
2023/08/30 00:30:34;;;;;;;11.13;7.60;;;;;;;16.92;82.79;99350.78;5029130;28;20682;-43
2023/08/30 00:33:04;;;;;;;9.90;7.03;;;;;;;16.90;82.74;99352.66;5040387;28;20038;-45
2023/08/30 00:35:30;;;;;;;9.90;6.90;;;;;;;16.72;82.80;99326.75;5029799;28;20037;-44
2023/08/30 00:37:56;;;;;;;11.48;7.20;;;;;;;16.77;82.95;99325.53;4996032;28;20045;-48
2023/08/30 00:40:25;;;;;;;14.60;9.27;;;;;;;16.91;82.95;99359.59;5029616;28;20084;-44
2023/08/30 00:42:53;;;;;;;15.93;9.82;;;;;;;16.86;82.79;99352.94;5021648;28;20045;-44
2023/08/30 00:45:19;;;;;;;13.70;9.15;;;;;;;16.90;82.63;99352.66;5030121;28;20048;-43
2023/08/30 00:47:45;;;;;;;13.13;8.75;;;;;;;16.92;82.83;99360.44;5031396;28;20056;-42
2023/08/30 00:50:11;;;;;;;10.00;6.65;;;;;;;16.88;82.89;99362.44;5027775;28;20037;-42
2023/08/30 00:52:55;;;;;;;9.77;6.22;;;;;;;16.74;82.61;99346.75;5008108;28;20492;-42
2023/08/30 00:55:42;;;;;;;9.40;6.30;;;;;;;16.90;82.57;99375.47;5029756;28;20063;-42
2023/08/30 00:58:09;;;;;;;8.95;6.18;;;;;;;16.77;82.39;99351.78;4991244;28;20063;-43
2023/08/30 01:00:35;;;;;;;8.13;6.20;;;;;;;16.92;82.50;99377.03;5027359;28;20045;-44
2023/08/30 01:03:01;;;;;;;7.95;5.75;;;;;;;16.92;82.58;99378.81;5026135;28;20060;-42
2023/08/30 01:05:27;;;;;;;8.57;6.10;;;;;;;16.91;82.62;99374.50;5002028;28;20485;-42
2023/08/30 01:07:53;;;;;;;10.80;6.05;;;;;;;16.75;82.50;99355.44;5026168;28;20124;-41
2023/08/30 01:10:25;;;;;;;7.55;5.75;;;;;;;16.89;82.60;99379.88;5028189;28;20145;-44
2023/08/30 01:12:56;;;;;;;7.35;5.45;;;;;;;16.76;82.63;99357.13;5037031;28;20040;-43
2023/08/30 01:15:22;;;;;;;;;;;;;;;16.88;82.51;99374.72;5030175;28;20049;-42
2023/08/30 01:17:48;;;;;;;6.88;5.00;;;;;;;16.84;82.38;99379.31;5028054;28;19916;-43
2023/08/30 01:20:18;;;;;;;6.38;4.78;;;;;;;16.85;82.24;99380.19;5007569;28;20034;-43
2023/08/30 01:23:05;;;;;;;8.10;5.25;;;;;;;16.85;82.17;99385.44;5025362;28;20037;-41
2023/08/30 01:25:49;;;;;;;6.80;4.82;;;;;;;16.85;81.67;99377.53;5029346;28;20049;-42
2023/08/30 01:28:18;;;;;;;7.05;5.10;;;;;;;16.84;81.86;99381.13;5019847;28;20042;-41
2023/08/30 01:30:44;;;;;;;7.65;5.10;;;;;;;16.83;81.88;99377.63;5036776;28;20045;-45
2023/08/30 01:33:10;;;;;;;6.45;4.82;;;;;;;16.69;81.92;99355.84;5030252;28;20037;-42
2023/08/30 01:35:37;;;;;;;6.25;4.18;;;;;;;16.83;81.79;99380.25;4995670;28;20505;-44
2023/08/30 01:38:04;;;;;;;7.50;5.05;;;;;;;16.76;81.68;99362.38;5027261;28;20033;-45
2023/08/30 01:40:33;;;;;;;6.47;4.95;;;;;;;16.84;81.56;99389.00;4986703;28;20065;-44
2023/08/30 01:43:04;;;;;;;8.05;5.22;;;;;;;16.82;81.37;99394.31;5009430;28;20538;-46
2023/08/30 01:45:30;;;;;;;9.82;5.88;;;;;;;16.68;81.26;99376.00;5026411;28;20060;-42
2023/08/30 01:47:57;;;;;;;7.38;5.22;;;;;;;16.66;81.47;99362.13;5023010;28;20584;-43
2023/08/30 01:50:23;;;;;;;6.35;4.70;;;;;;;16.53;81.34;99346.31;5026063;28;20041;-42
2023/08/30 01:52:50;;;;;;;5.70;4.55;;;;;;;16.77;81.18;99385.06;4995365;28;20044;-43
2023/08/30 01:55:18;;;;;;;6.20;4.60;;;;;;;16.58;81.05;99360.91;5028928;28;20582;-41
2023/08/30 01:57:45;;;;;;;6.03;4.22;;;;;;;16.77;80.77;99388.53;5026590;28;20587;-42
2023/08/30 02:00:12;;;;;;;6.28;4.43;;;;;;;16.76;80.84;99388.63;5004797;28;20137;-43
2023/08/30 02:02:43;;;;;;;5.38;4.32;;;;;;;16.75;80.71;99382.53;5030076;28;20045;-43
2023/08/30 02:05:09;;;;;;;6.25;3.90;;;;;;;16.75;80.21;99393.03;5020342;28;20049;-43
2023/08/30 02:07:45;;;;;;;7.13;4.20;;;;;;;16.74;80.40;99387.91;5010179;28;20037;-42
2023/08/30 02:10:13;;;;;;;5.68;4.30;;;;;;;16.71;80.27;99385.44;5028186;28;20056;-43
2023/08/30 02:12:47;;;;;;;7.13;4.47;;;;;;;16.72;79.93;99395.00;4995700;28;20045;-43
2023/08/30 02:15:13;;;;;;;6.80;5.38;;;;;;;16.68;80.13;99385.66;5007871;28;20084;-44
2023/08/30 02:17:39;;;;;;;6.93;4.95;;;;;;;16.64;79.92;99385.03;5010914;28;20048;-45
2023/08/30 02:20:06;;;;;;;8.13;5.70;;;;;;;16.50;80.10;99356.13;4992458;28;20505;-43
2023/08/30 02:22:33;;;;;;;8.95;5.63;;;;;;;16.64;80.00;99385.03;5026883;28;20033;-44
2023/08/30 02:25:04;;;;;;;9.98;5.82;;;;;;;16.54;80.04;99365.50;5027740;28;20078;-46
2023/08/30 02:27:32;;;;;;;11.80;5.25;;;;;;;16.64;79.97;99387.66;5029393;28;20429;-42
2023/08/30 02:29:58;;;;;;;8.60;5.55;;;;;;;16.61;80.27;99395.69;5025918;28;20128;-41
2023/08/30 02:32:24;;;;;;;8.00;5.45;;;;;;;16.59;80.29;99388.88;5028130;28;20516;-44
2023/08/30 02:34:52;;;;;;;8.35;5.25;;;;;;;16.60;80.42;99412.38;5028150;28;20061;-44
2023/08/30 02:37:21;;;;;;;10.73;6.38;;;;;;;16.61;80.40;99415.84;5028221;28;20133;-44
2023/08/30 02:39:47;;;;;;;11.23;5.70;;;;;;;16.46;80.41;99389.63;5027174;28;20140;-45
2023/08/30 02:42:13;;;;;;;10.13;5.72;;;;;;;16.44;80.36;99388.00;5026600;28;20037;-47
2023/08/30 02:44:39;;;;;;;9.77;6.38;;;;;;;16.61;80.24;99413.22;5017673;28;20697;-43
2023/08/30 02:47:05;;;;;;;11.55;6.50;;;;;;;16.47;80.42;99399.19;5010236;28;20045;-43
2023/08/30 02:49:32;;;;;;;11.13;6.60;;;;;;;16.59;80.19;99425.63;5028079;28;20491;-43
2023/08/30 02:51:58;;;;;;;13.90;6.70;;;;;;;16.57;80.20;99419.59;5028136;28;20049;-44
2023/08/30 02:54:24;;;;;;;10.82;6.75;;;;;;;16.52;79.78;99420.72;5022909;28;20470;-46
2023/08/30 02:56:50;;;;;;;9.73;6.25;;;;;;;16.52;79.69;99425.97;5027840;28;20041;-45
2023/08/30 02:59:16;;;;;;;9.13;5.50;;;;;;;16.46;79.70;99422.88;5027839;28;20033;-46
2023/08/30 03:01:44;;;;;;;9.18;5.95;;;;;;;16.46;79.55;99423.72;5010387;28;20048;-42
2023/08/30 03:04:11;;;;;;;9.02;6.68;;;;;;;16.44;79.27;99416.88;5026898;28;20064;-40
2023/08/30 03:06:37;;;;;;;9.93;6.72;;;;;;;16.27;79.21;99388.25;5026929;28;20087;-43
2023/08/30 03:09:06;;;;;;;11.80;7.45;;;;;;;16.33;79.02;99408.84;5028428;28;20048;-40
2023/08/30 03:11:34;;;;;;;11.82;7.55;;;;;;;16.35;79.28;99410.44;5012199;28;20552;-41
2023/08/30 03:14:01;;;;;;;10.77;7.10;;;;;;;16.24;79.26;99391.03;5008663;28;20061;-45
2023/08/30 03:16:27;;;;;;;10.57;6.88;;;;;;;16.33;79.03;99406.22;5024158;28;20045;-41
2023/08/30 03:18:54;;;;;;;12.38;6.00;;;;;;;16.36;79.19;99406.03;5024924;28;20056;-41
2023/08/30 03:21:20;;;;;;;11.45;6.60;;;;;;;16.35;79.11;99402.56;5025872;28;20046;-42
2023/08/30 03:23:46;;;;;;;10.27;6.47;;;;;;;16.40;79.13;99402.28;5051584;28;20042;-41
2023/08/30 03:26:14;;;;;;;12.00;6.65;;;;;;;16.42;78.86;99408.28;5026177;28;20045;-42
2023/08/30 03:28:41;;;;;;;11.65;5.82;;;;;;;16.43;78.63;99415.22;5023681;28;20053;-42
2023/08/30 03:31:17;;;;;;;12.15;6.65;;;;;;;16.44;78.85;99417.72;5024393;28;20045;-44
2023/08/30 03:33:44;;;;;;;13.18;7.53;;;;;;;16.45;78.48;99415.94;5024438;28;20060;-44
2023/08/30 03:36:12;;;;;;;15.32;7.40;;;;;;;16.44;78.49;99424.75;5026492;28;20517;-42
2023/08/30 03:38:38;;;;;;;8.38;5.93;;;;;;;16.43;78.44;99426.53;5022197;28;20052;-41
2023/08/30 03:41:05;;;;;;;12.43;5.70;;;;;;;16.44;78.38;99422.13;5025828;28;20072;-41
2023/08/30 03:43:32;;;;;;;13.15;7.00;;;;;;;16.46;78.14;99428.97;5025164;28;20041;-42
2023/08/30 03:45:59;;;;;;;13.93;6.85;;;;;;;16.53;78.04;99424.19;5020513;28;20037;-42
2023/08/30 03:48:25;;;;;;;8.43;5.45;;;;;;;16.57;77.83;99415.19;5026455;28;20041;-43
2023/08/30 03:50:51;;;;;;;10.45;6.03;;;;;;;16.64;77.48;99415.69;5024385;28;20091;-42
2023/08/30 03:53:17;;;;;;;12.13;6.45;;;;;;;16.67;77.38;99418.94;5027006;28;20037;-43
2023/08/30 03:55:43;;;;;;;13.02;6.50;;;;;;;16.59;77.15;99399.38;5022954;28;20525;-41
2023/08/30 03:58:09;;;;;;;12.10;5.70;;;;;;;16.80;76.85;99416.38;5047897;28;20096;-44
2023/08/30 04:00:39;;;;;;;9.73;4.28;;;;;;;16.81;76.67;99418.91;5019096;28;20038;-41
2023/08/30 04:03:08;;;;;;;9.10;4.53;;;;;;;16.71;76.08;99401.19;5026486;28;20049;-42
2023/08/30 04:05:35;;;;;;;7.47;4.40;;;;;;;16.74;75.61;99401.03;5025507;28;20483;-41
2023/08/30 04:08:05;;;;;;;4.90;3.63;;;;;;;16.89;75.40;99414.00;5025574;28;20421;-40
2023/08/30 04:10:35;;;;;;;7.88;3.80;;;;;;;16.92;74.79;99421.69;5026517;28;20505;-42
2023/08/30 04:13:03;;;;;;;5.25;3.80;;;;;;;16.80;74.74;99395.38;5026356;28;20183;-43
2023/08/30 04:15:29;;;;;;;5.43;3.13;;;;;;;17.00;74.49;99425.59;5025393;28;20048;-41
2023/08/30 04:17:55;;;;;;;3.55;2.90;;;;;;;16.89;73.71;99400.88;5026075;28;20033;-41
2023/08/30 04:20:20;;;;;;;4.75;3.53;;;;;;;17.07;73.66;99419.00;5025094;28;20076;-43
2023/08/30 04:22:47;;;;;;;8.70;3.70;;;;;;;17.10;73.26;99418.81;5001432;28;20049;-42
2023/08/30 04:25:13;;;;;;;12.38;4.35;;;;;;;17.13;72.90;99422.06;5022422;28;20050;-42
2023/08/30 04:27:39;;;;;;;4.32;3.10;;;;;;;17.17;72.77;99418.28;5036657;28;20571;-44
2023/08/30 04:30:06;;;;;;;6.75;4.20;;;;;;;17.22;72.72;99425.88;5008848;28;20049;-42
2023/08/30 04:32:32;;;;;;;6.85;3.20;;;;;;;17.26;72.41;99430.84;5023383;28;20048;-42
2023/08/30 04:34:58;;;;;;;5.63;3.50;;;;;;;17.13;72.16;99405.47;5004028;28;20045;-44
2023/08/30 04:37:25;;;;;;;14.00;3.85;;;;;;;17.29;72.19;99433.25;5023563;28;20535;-41
2023/08/30 04:39:51;;;;;;;8.43;3.85;;;;;;;17.33;71.82;99437.38;5026416;28;20053;-44
2023/08/30 04:42:17;;;;;;;5.65;3.67;;;;;;;17.41;71.93;99436.03;5027697;28;20053;-42
2023/08/30 04:44:43;;;;;;;9.63;3.72;;;;;;;17.44;71.55;99431.41;5025462;28;20045;-42
2023/08/30 04:47:09;;;;;;;6.80;3.75;;;;;;;17.45;71.46;99440.97;5024874;28;20049;-43
2023/08/30 04:49:37;;;;;;;6.20;3.25;;;;;;;17.49;71.50;99442.44;5008996;28;20563;-41
2023/08/30 04:52:04;;;;;;;6.38;3.75;;;;;;;17.50;71.16;99427.53;5010048;28;20088;-42
2023/08/30 04:54:31;;;;;;;7.78;3.10;;;;;;;17.52;70.95;99441.41;5009774;28;20475;-41
2023/08/30 04:56:57;;;;;;;5.72;3.53;;;;;;;17.49;70.78;99441.59;5024523;28;20042;-42
2023/08/30 04:59:22;;;;;;;4.93;3.25;;;;;;;17.47;70.69;99435.63;5024450;28;20567;-41
2023/08/30 05:01:49;;;;;;;7.78;4.03;;;;;;;17.43;70.64;99432.34;5025514;28;20045;-43
2023/08/30 05:04:17;;;;;;;4.60;3.50;;;;;;;17.45;70.51;99427.84;5026436;28;20073;-42
2023/08/30 05:06:43;;;;;;;5.43;3.60;;;;;;;17.41;70.48;99423.72;5009129;28;20113;-41
2023/08/30 05:09:09;;;;;;;5.65;3.75;;;;;;;17.42;70.44;99432.47;5028146;28;20041;-43
2023/08/30 05:11:35;;;;;;;8.35;3.95;;;;;;;17.47;70.58;99431.22;5012605;28;20126;-43
2023/08/30 05:14:01;;;;;;;6.85;4.32;;;;;;;17.50;70.47;99431.00;5030053;28;20525;-42
2023/08/30 05:16:27;;;;;;;8.07;4.20;;;;;;;17.53;70.36;99436.06;5029415;28;20183;-42
2023/08/30 05:18:53;;;;;;;6.40;4.00;;;;;;;17.50;70.48;99432.78;5030166;28;20570;-42
2023/08/30 05:21:19;;;;;;;6.63;4.10;;;;;;;17.50;70.69;99446.78;5009768;28;20041;-44
2023/08/30 05:23:46;;;;;;;10.65;4.85;;;;;;;17.49;70.69;99410.91;5026083;28;20437;-42
2023/08/30 05:26:13;;;;;;;19.05;6.55;;;;;;;17.83;70.11;99421.81;5013566;28;20029;-42
2023/08/30 05:28:39;;;;;;;8.27;4.90;;;;;;;17.74;69.63;99389.94;5030704;28;20049;-41
2023/08/30 05:31:06;;;;;;;10.50;4.35;;;;;;;18.03;69.24;99416.03;5026101;28;20398;-43
2023/08/30 05:33:52;;;;;;;7.57;4.22;;;;;;;18.01;68.78;99410.88;5024335;28;20048;-42
2023/08/30 05:36:38;;;;;;;7.95;4.10;;;;;;;18.16;68.45;99407.16;5021163;28;20042;-42
2023/08/30 05:39:42;;;;;;;7.53;4.18;;;;;;;18.31;68.13;99413.16;5016350;28;20045;-42
2023/08/30 05:42:08;;;;;;;7.72;4.53;;;;;;;18.53;67.73;99412.47;5010500;28;20137;-45
2023/08/30 05:44:34;;;;;;;9.23;4.30;;;;;;;18.67;67.32;99414.16;5036537;28;20053;-43
2023/08/30 05:47:01;;;;;;;10.95;5.00;;;;;;;18.81;66.85;99414.00;5006866;28;20411;-43
2023/08/30 05:49:27;;;;;;;11.02;4.10;;;;;;;18.96;66.36;99426.91;5022686;28;20060;-41
2023/08/30 05:51:52;;;;;;;8.60;5.72;;;;;;;19.00;66.03;99425.72;5008719;28;20050;-41
2023/08/30 05:54:19;;;;;;;7.65;4.10;;;;;;;19.05;65.50;99434.13;5002245;28;20152;-41
2023/08/30 05:56:44;;;;;;;6.72;3.80;;;;;;;19.05;65.33;99442.03;5027053;28;20134;-42
2023/08/30 05:59:11;;;;;;;8.25;4.25;;;;;;;19.11;65.32;99438.13;5008424;28;20133;-42
2023/08/30 06:01:37;;;;;;;5.93;3.90;;;;;;;19.16;65.01;99428.06;5019781;28;20509;-42
2023/08/30 06:04:04;;;;;;;6.93;4.30;;;;;;;19.23;64.50;99433.75;5026500;28;20057;-42
2023/08/30 06:06:30;;;;;;;5.70;3.97;;;;;;;19.26;64.16;99447.53;5005122;28;20034;-43
2023/08/30 06:08:56;;;;;;;7.63;3.22;;;;;;;19.25;64.30;99450.28;5026978;28;20047;-41
2023/08/30 06:11:22;;;;;;;11.25;5.72;;;;;;;19.24;64.23;99433.63;5017663;28;20075;-41
2023/08/30 06:13:48;;;;;;;4.70;3.58;;;;;;;19.22;64.35;99443.44;5025658;28;20053;-42
2023/08/30 06:16:13;;;;;;;10.60;4.85;;;;;;;19.19;64.33;99434.94;5029873;28;20068;-43
2023/08/30 06:18:39;;;;;;;8.45;3.78;;;;;;;19.25;63.94;99437.97;5032278;28;20034;-42
2023/08/30 06:21:05;;;;;;;9.38;3.92;;;;;;;19.19;63.40;99427.03;5028659;28;20033;-42
2023/08/30 06:23:33;;;;;;;7.97;3.40;;;;;;;19.29;62.99;99426.22;5028017;28;20063;-41
2023/08/30 06:26:00;;;;;;;4.22;2.97;;;;;;;19.21;63.16;99398.78;5029766;28;20059;-41
2023/08/30 06:28:26;;;;;;;6.78;3.63;;;;;;;19.39;63.02;99407.94;5034342;28;20051;-42
2023/08/30 06:30:52;;;;;;;9.07;3.50;;;;;;;19.72;62.87;99436.22;5031854;28;20038;-43
2023/08/30 06:33:18;;;;;;;8.05;3.08;;;;;;;19.88;62.52;99442.88;5049913;28;20093;-42
2023/08/30 06:35:44;;;;;;;6.40;3.05;;;;;;;20.23;61.48;99448.06;5024098;28;20060;-41
2023/08/30 06:38:10;;;;;;;5.82;3.17;;;;;;;20.50;60.56;99444.25;5028644;28;20029;-43
2023/08/30 06:40:36;;;;;;;4.10;2.75;;;;;;;20.68;59.65;99440.97;5030734;28;20072;-42
2023/08/30 06:43:03;;;;;;;3.63;2.47;;;;;;;20.87;58.91;99443.00;5014472;28;20038;-43
2023/08/30 06:45:29;;;;;;;11.63;3.10;;;;;;;20.79;58.33;99416.34;5035895;28;20470;-42
2023/08/30 06:47:54;;;;;;;5.95;3.13;;;;;;;21.08;58.35;99433.34;5026202;28;20038;-43
2023/08/30 06:50:20;;;;;;;5.00;2.95;;;;;;;21.22;57.71;99439.31;5033905;28;20083;-43
2023/08/30 06:52:47;;;;;;;4.03;2.50;;;;;;;21.41;56.95;99445.59;5027005;28;20163;-41
2023/08/30 06:55:12;;;;;;;5.80;2.55;;;;;;;21.96;55.91;99444.50;5008347;28;20057;-43
2023/08/30 06:57:38;;;;;;;7.22;2.90;;;;;;;22.93;54.00;99419.22;5023846;28;21725;-42
2023/08/30 07:00:08;;;;;;;10.88;3.63;;;;;;;23.23;52.98;99420.94;5026535;28;20049;-46
2023/08/30 07:02:37;;;;;;;5.25;2.65;;;;;;;23.57;52.03;99435.47;5025665;28;20045;-45
2023/08/30 07:05:04;;;;;;;4.65;2.40;;;;;;;25.01;49.74;99442.16;5022038;28;20045;-44
2023/08/30 07:07:31;;;;;;;7.57;3.55;;;;;;;26.13;47.56;99443.25;5037308;28;20037;-45
2023/08/30 07:09:58;;;;;;;5.80;2.97;;;;;;;26.27;46.76;99441.91;5024938;28;20398;-47
2023/08/30 07:12:25;;;;;;;5.85;3.33;;;;;;;26.78;45.71;99436.44;5025227;28;20517;-43
2023/08/30 07:14:51;;;;;;;4.70;2.35;;;;;;;27.24;44.26;99445.75;5018117;28;20064;-46
2023/08/30 07:17:17;;;;;;;3.50;2.67;;;;;;;28.31;42.28;99458.13;5014449;28;20065;-43
2023/08/30 07:19:43;;;;;;;4.93;2.60;;;;;;;29.03;40.95;99455.16;5052543;28;20042;-45
2023/08/30 07:22:09;;;;;;;4.55;2.30;;;;;;;28.91;40.41;99451.22;5027841;28;20045;-47
2023/08/30 07:24:36;;;;;;;4.90;2.50;;;;;;;28.22;41.07;99447.44;5025235;28;20052;-42
2023/08/30 07:27:03;;;;;;;4.20;2.33;;;;;;;27.32;41.67;99447.63;5026924;28;20049;-46
2023/08/30 07:29:29;;;;;;;5.38;2.88;;;;;;;26.48;42.75;99434.34;5027211;28;20045;-42
2023/08/30 07:31:55;;;;;;;5.47;3.40;;;;;;;25.83;43.47;99439.25;5008582;28;20064;-43
2023/08/30 07:34:20;;;;;;;2.90;2.30;;;;;;;25.27;44.17;99447.56;5023897;28;20140;-43
2023/08/30 07:36:46;;;;;;;3.40;2.75;;;;;;;24.84;45.04;99457.06;5025069;28;20136;-42
2023/08/30 07:39:13;;;;;;;5.45;2.80;;;;;;;24.63;45.57;99447.66;5026442;28;20045;-45
2023/08/30 07:41:38;;;;;;;4.80;2.33;;;;;;;24.44;45.65;99451.25;5023943;28;20041;-42
2023/08/30 07:44:05;;;;;;;2.47;2.20;;;;;;;24.32;45.93;99437.31;5026179;28;20148;-43
2023/08/30 07:46:31;;;;;;;3.38;1.95;;;;;;;24.22;46.33;99452.44;5022635;28;20828;-42
2023/08/30 07:48:56;;;;;;;4.20;2.15;;;;;;;24.15;46.74;99456.63;5025625;28;20037;-42
2023/08/30 07:51:22;;;;;;;6.78;3.10;;;;;;;23.98;47.12;99434.28;5009975;28;20048;-43
2023/08/30 07:53:48;;;;;;;4.65;2.55;;;;;;;24.05;47.25;99450.50;5023160;28;20052;-45
2023/08/30 07:56:14;;;;;;;7.00;2.88;;;;;;;23.95;47.27;99431.94;5021074;28;20556;-47
2023/08/30 07:58:43;;;;;;;4.45;2.50;;;;;;;24.10;47.37;99456.22;5026637;28;20037;-47
2023/08/30 08:01:09;;;;;;;4.65;2.60;;;;;;;23.92;47.42;99421.59;5021060;28;20038;-48
2023/08/30 08:03:34;;;;;;;7.53;2.42;;;;;;;24.39;47.14;99450.84;5018608;28;20247;-42
2023/08/30 08:06:00;;;;;;;6.95;3.45;;;;;;;24.55;46.81;99460.88;5020963;28;20128;-44
2023/08/30 08:08:26;;;;;;;5.15;2.28;;;;;;;24.65;46.29;99443.84;5020077;28;20069;-43
2023/08/30 08:10:52;;;;;;;5.13;2.55;;;;;;;24.80;46.13;99453.03;5014444;28;20048;-43
2023/08/30 08:13:18;;;;;;;5.22;2.38;;;;;;;24.66;46.05;99466.78;5021829;28;20064;-44
2023/08/30 08:15:44;;;;;;;4.53;2.25;;;;;;;24.61;45.57;99436.31;5023355;28;20064;-42
2023/08/30 08:18:10;;;;;;;2.85;1.90;;;;;;;24.37;45.78;99436.88;5022232;28;20505;-44
2023/08/30 08:20:36;;;;;;;5.13;2.38;;;;;;;24.27;46.27;99455.50;5020677;28;20084;-41
2023/08/30 08:23:03;;;;;;;4.28;2.00;;;;;;;23.95;46.98;99463.81;5025469;28;20045;-44
2023/08/30 08:25:29;;;;;;;4.28;2.45;;;;;;;23.74;47.26;99476.41;5025744;28;20044;-45
2023/08/30 08:27:55;;;;;;;6.30;3.30;;;;;;;23.72;47.25;99474.84;5027548;28;20033;-41
2023/08/30 08:30:20;;;;;;;4.82;2.47;;;;;;;24.16;47.00;99479.56;5047299;28;20037;-43
2023/08/30 08:32:50;;;;;;;3.45;2.05;;;;;;;24.56;46.49;99483.78;5021011;28;20041;-43
2023/08/30 08:35:16;;;;;;;3.97;2.25;;;;;;;24.73;45.93;99483.84;5005468;28;20184;-42
2023/08/30 08:37:42;;;;;;;4.95;2.00;;;;;;;25.69;44.58;99482.44;5026618;28;20124;-43
2023/08/30 08:40:08;;;;;;;2.78;2.10;;;;;;;26.69;42.46;99452.59;5006647;28;20540;-46
2023/08/30 08:42:36;;;;;;;2.97;2.20;;;;;;;28.46;40.00;99465.28;5032736;28;20061;-42
2023/08/30 08:45:03;;;;;;;3.03;1.98;;;;;;;29.04;38.50;99488.13;5030624;28;20132;-47
2023/08/30 08:47:34;;;;;;;2.83;2.40;;;;;;;29.23;38.38;99486.84;5017911;28;20041;-44
2023/08/30 08:50:03;;;;;;;14.35;3.38;;;;;;;31.55;35.51;99481.06;5021486;28;20100;-50
2023/08/30 08:52:32;;;;;;;5.70;2.60;;;;;;;33.15;33.26;99485.50;5019799;28;20044;-44
2023/08/30 08:54:59;;;;;;;5.30;2.30;;;;;;;33.20;32.69;99493.81;5023746;28;20565;-46
2023/08/30 08:57:26;;;;;;;4.28;2.30;;;;;;;34.28;30.61;99490.00;5020893;28;20030;-41
2023/08/30 08:59:55;;;;;;;5.97;2.47;;;;;;;35.63;29.26;99494.50;5027095;28;20049;-43
2023/08/30 09:02:21;;;;;;;5.75;2.20;;;;;;;36.79;27.65;99494.72;5011053;28;20049;-43
2023/08/30 09:04:47;;;;;;;4.95;2.50;;;;;;;35.83;27.81;99487.09;5009847;28;20049;-44
2023/08/30 09:07:14;;;;;;;8.45;2.10;;;;;;;36.60;26.80;99495.75;5029524;28;20049;-42
2023/08/30 09:09:40;;;;;;;4.97;2.08;;;;;;;36.18;26.96;99494.72;5025753;28;20041;-45
2023/08/30 09:12:06;;;;;;;3.35;2.10;;;;;;;35.61;27.23;99489.28;5026849;28;20065;-44
2023/08/30 09:14:32;;;;;;;5.38;2.10;;;;;;;34.45;28.22;99495.81;5015130;28;20064;-43
2023/08/30 09:17:00;;;;;;;3.03;2.30;;;;;;;35.20;27.46;99495.19;5010828;28;20497;-44
2023/08/30 09:19:26;;;;;;;8.95;2.45;;;;;;;35.65;26.96;99504.03;5017918;28;20044;-43
2023/08/30 09:21:59;;;;;;;3.70;2.15;;;;;;;35.20;27.08;99499.75;5029857;28;20045;-42
2023/08/30 09:24:25;;;;;;;5.35;2.10;;;;;;;34.46;27.77;99510.97;5028747;28;20053;-44
2023/08/30 09:26:54;;;;;;;4.35;2.50;;;;;;;33.34;28.78;99502.75;5029190;28;20135;-43
2023/08/30 09:29:22;;;;;;;4.10;2.22;;;;;;;33.79;28.44;99487.75;5025778;28;20182;-46
2023/08/30 09:31:51;;;;;;;5.10;2.50;;;;;;;34.39;27.93;99491.25;5027284;28;20131;-44
2023/08/30 09:34:17;;;;;;;4.90;2.70;;;;;;;33.86;28.53;99490.44;5030606;28;20077;-48
2023/08/30 09:36:45;;;;;;;3.15;2.00;;;;;;;33.10;29.11;99492.50;5028300;28;20069;-44
2023/08/30 09:39:12;;;;;;;4.25;2.38;;;;;;;32.22;30.39;99498.66;5030653;28;20493;-49
2023/08/30 09:41:43;;;;;;;5.72;2.75;;;;;;;31.05;31.91;99499.94;5030557;28;20509;-43
2023/08/30 09:44:14;;;;;;;5.40;1.95;;;;;;;30.16;33.22;99499.06;5028785;28;20045;-43
2023/08/30 09:46:45;;;;;;;4.97;2.40;;;;;;;29.45;34.27;99510.19;5028986;28;20054;-46
2023/08/30 09:49:11;;;;;;;3.08;2.15;;;;;;;29.25;34.67;99522.31;5024939;28;20507;-45
2023/08/30 09:51:42;;;;;;;6.40;2.22;;;;;;;29.86;33.68;99518.75;5030494;28;20132;-49
2023/08/30 09:54:19;;;;;;;3.65;1.90;;;;;;;30.97;32.54;99521.50;5035094;28;20485;-49
2023/08/30 09:56:46;;;;;;;6.85;2.20;;;;;;;31.62;31.45;99509.88;5028793;28;20042;-44
2023/08/30 09:59:14;;;;;;;3.90;2.47;;;;;;;32.15;30.88;99520.13;5012447;28;20436;-43
2023/08/30 10:01:45;;;;;;;5.35;2.28;;;;;;;33.00;29.45;99513.63;5025974;28;20208;-47
2023/08/30 10:04:11;;;;;;;4.07;2.38;;;;;;;34.25;28.36;99536.34;5030540;28;20056;-46
2023/08/30 10:06:39;;;;;;;3.67;2.40;;;;;;;35.39;26.94;99530.41;5027523;28;20429;-49
2023/08/30 10:09:07;;;;;;;3.50;2.20;;;;;;;35.24;27.13;99536.94;5028925;28;20049;-47
2023/08/30 10:11:38;;;;;;;2.28;2.05;;;;;;;33.74;28.55;99533.38;5027392;28;20080;-46
2023/08/30 10:14:05;;;;;;;3.22;2.40;;;;;;;33.08;29.56;99535.00;5025921;28;20210;-47
2023/08/30 10:16:51;;;;;;;4.40;2.10;;;;;;;32.88;29.92;99529.50;5006014;28;20033;-47
2023/08/30 10:19:27;;;;;;;18.92;3.55;;;;;;;32.00;31.33;99516.66;5028627;28;20428;-49
2023/08/30 10:21:56;;;;;;;6.35;2.63;;;;;;;31.83;31.61;99520.63;5021860;28;20048;-45
2023/08/30 10:24:22;;;;;;;6.80;3.08;;;;;;;33.34;30.00;99523.53;5029544;28;20041;-44
2023/08/30 10:26:48;;;;;;;6.60;2.78;;;;;;;34.25;28.36;99505.81;5028173;28;20780;-46
2023/08/30 10:29:15;;;;;;;5.93;2.50;;;;;;;34.47;28.05;99525.31;5024874;28;20136;-45
2023/08/30 10:31:41;;;;;;;5.82;2.53;;;;;;;33.65;28.78;99513.00;5011543;28;20033;-46
2023/08/30 10:34:16;;;;;;;4.25;2.30;;;;;;;33.46;29.23;99513.78;5047507;28;20041;-47
2023/08/30 10:36:42;;;;;;;9.73;2.72;;;;;;;33.25;29.32;99489.69;5028279;28;20128;-47
2023/08/30 10:39:12;;;;;;;10.13;2.42;;;;;;;33.04;29.84;99515.72;5056455;28;20037;-43
2023/08/30 10:41:55;;;;;;;4.80;2.10;;;;;;;32.25;30.58;99522.47;5028189;28;20065;-42
2023/08/30 10:44:22;;;;;;;2.63;2.03;;;;;;;31.63;31.06;99511.56;5028397;28;20140;-46
2023/08/30 10:46:53;;;;;;;4.07;2.20;;;;;;;31.66;31.45;99498.59;5027807;28;20060;-45
2023/08/30 10:49:19;;;;;;;7.60;2.30;;;;;;;32.35;30.98;99523.78;5008744;28;20045;-47
2023/08/30 10:51:47;;;;;;;7.80;2.25;;;;;;;32.71;30.34;99495.88;5026267;28;20620;-46
2023/08/30 10:54:16;;;;;;;5.25;2.15;;;;;;;33.19;29.84;99515.56;5027931;28;20509;-44
2023/08/30 10:56:55;;;;;;;6.70;2.60;;;;;;;33.52;29.13;99491.41;5023976;28;20563;-44
2023/08/30 10:59:22;;;;;;;7.82;2.33;;;;;;;34.57;28.25;99512.19;5027937;28;20505;-48
2023/08/30 11:01:51;;;;;;;3.05;2.40;;;;;;;35.25;27.53;99511.56;5032626;28;20049;-46
2023/08/30 11:04:18;;;;;;;2.28;2.08;;;;;;;35.67;27.06;99510.09;5029383;28;20390;-43
2023/08/30 11:06:46;;;;;;;6.85;3.28;;;;;;;36.11;25.66;99508.31;5029759;28;20083;-44
2023/08/30 11:09:17;;;;;;;;;;;;;;;36.63;25.65;99511.59;5025488;28;20080;-44
2023/08/30 11:11:45;;;;;;;3.25;1.95;;;;;;;37.55;25.18;99515.88;5031831;28;20389;-44
2023/08/30 11:14:11;;;;;;;3.45;2.15;;;;;;;37.82;24.47;99497.28;5026316;28;20072;-43
2023/08/30 11:16:37;;;;;;;5.22;2.20;;;;;;;38.86;23.58;99510.06;5026129;28;20045;-44
2023/08/30 11:19:04;;;;;;;4.88;2.47;;;;;;;39.93;22.28;99513.78;5024207;28;20130;-46
2023/08/30 11:21:34;;;;;;;4.87;2.10;;;;;;;40.04;22.20;99518.31;5023820;28;20046;-43
2023/08/30 11:24:00;;;;;;;3.20;2.40;;;;;;;40.14;21.87;99513.03;5022342;28;20067;-45
2023/08/30 11:26:26;;;;;;;7.68;2.85;;;;;;;40.31;21.87;99509.47;5032601;28;20049;-43
2023/08/30 11:28:52;;;;;;;5.80;3.20;;;;;;;40.13;21.69;99489.59;5026773;28;20045;-43
2023/08/30 11:31:22;;;;;;;4.30;2.78;;;;;;;40.11;21.13;99504.53;5023813;28;20033;-45
2023/08/30 11:33:55;;;;;;;3.90;2.58;;;;;;;40.64;20.85;99506.72;5027077;28;20493;-42